Woodbury, Connecticut
Current Conditions -  °F | °C
As of 4:50 PM on Saturday 20 Dec 2014 (Local Time) from KOXC Reporting Station
Overcast Overcast  
Wind Chill: -6°   Ceiling: 2300
Heat Index: -2°   Visibility: 10mi
Dew Point: -8°   Wind: 7mph
Humidity: 64%   Direction: 30°NNE
Pressure: 30.23"   Gusts: NA
Location:  41.54°N, 73.21°W
Report Text: KOXC 202150Z 03006KT 10SM OVC023 M02/M08 A3023
Loading
Personal Weather Stations






























Interactive Weather Map New forecast layout! Learn more

10-Day Weather Forecast

Advertisements
Track Severe Weather on mobile